Terminal Aerodrome Forecast
Issued by NWS

Home | Current Version | Previous Version | Text Only | Print | Product List | Glossary On
Versions: 1 2 3 4 5 6 7 8 9 10 11 12 13 14
000
FTUS46 KSGX 101700
TAFSNA
TAF
KSNA 101725Z 1018/1118 VRB04KT P6SM SCT020
     FM101900 22009KT P6SM SKC
     FM110200 VRB04KT P6SM FEW020
     FM110600 VRB03KT P6SM OVC017
     FM111500 VRB04KT P6SM BKN021
     FM111700 VRB05KT P6SM SCT024=

USA.gov is the U.S. government's official web portal to all federal, state and local government web resources and services.